createdAt,value
2019-04-26T00:00:34.917Z,100762.83
2019-04-26T00:03:36.284Z,100763.28
2019-04-26T00:06:28.199Z,100765.78
2019-04-26T00:09:31.093Z,100764.21
2019-04-26T00:12:48.909Z,100773.02
2019-04-26T00:16:02.483Z,100771.02
2019-04-26T00:18:54.871Z,100772.92
2019-04-26T00:21:47.598Z,100778.84
2019-04-26T00:24:39.324Z,100782.73
2019-04-26T00:27:31.406Z,100787.80
2019-04-26T00:30:22.710Z,100787.56
2019-04-26T00:33:15.183Z,100790.83
2019-04-26T00:36:06.606Z,100792.80
2019-04-26T00:38:58.683Z,100796.20
2019-04-26T00:41:50.617Z,100795.92
2019-04-26T00:44:42.451Z,100801.77
2019-04-26T00:47:34.841Z,100794.24
2019-04-26T00:50:26.348Z,100795.80
2019-04-26T00:53:19.953Z,100804.88
2019-04-26T00:56:14.540Z,100803.41
2019-04-26T00:59:08.630Z,100796.70
2019-04-26T01:02:06.682Z,100788.50
2019-04-26T01:04:57.980Z,100799.13
2019-04-26T01:07:51.466Z,100803.52
2019-04-26T01:10:42.872Z,100801.61
2019-04-26T01:13:34.163Z,100798.78
2019-04-26T01:16:26.415Z,100805.08
2019-04-26T01:19:20.314Z,100804.98
2019-04-26T01:22:19.350Z,100812.17
2019-04-26T01:25:49.800Z,100806.27
2019-04-26T01:29:00.204Z,100798.47
2019-04-26T01:32:02.478Z,100801.78
2019-04-26T01:34:56.969Z,100801.48
2019-04-26T01:37:50.610Z,100807.15
2019-04-26T01:40:44.706Z,100809.38
2019-04-26T01:43:55.585Z,100814.47
2019-04-26T01:46:48.419Z,100819.23
2019-04-26T01:49:40.268Z,100822.61
2019-04-26T01:52:31.953Z,100827.98
2019-04-26T01:55:25.589Z,100824.22
2019-04-26T01:58:17.243Z,100822.31
2019-04-26T02:01:33.784Z,100827.39
2019-04-26T02:04:30.452Z,100838.20
2019-04-26T02:07:41.410Z,100834.87
2019-04-26T02:10:33.070Z,100840.97
2019-04-26T02:13:25.257Z,100840.39
2019-04-26T02:16:16.518Z,100840.45
2019-04-26T02:19:07.994Z,100840.44
2019-04-26T02:22:30.642Z,100857.77
2019-04-26T02:25:22.160Z,100857.84
2019-04-26T02:28:14.423Z,100863.53
2019-04-26T02:31:05.633Z,100858.42
2019-04-26T02:33:57.519Z,100854.70
2019-04-26T02:36:57.610Z,100863.56
2019-04-26T02:39:42.797Z,100864.05
2019-04-26T02:42:42.367Z,100858.52
2019-04-26T02:46:10.922Z,100862.37
2019-04-26T02:49:35.079Z,100864.27
2019-04-26T02:52:47.099Z,100861.52
2019-04-26T02:56:26.156Z,100867.27
2019-04-26T02:59:45.168Z,100865.86
2019-04-26T03:02:39.091Z,100878.55
2019-04-26T03:05:34.257Z,100883.34
2019-04-26T03:08:29.820Z,100888.84
2019-04-26T03:11:26.247Z,100888.08
2019-04-26T03:14:41.974Z,100886.42
2019-04-26T03:17:49.240Z,100886.25
2019-04-26T03:20:44.689Z,100887.45
2019-04-26T03:24:05.586Z,100893.64
2019-04-26T03:27:43.436Z,100899.57
2019-04-26T03:30:53.016Z,100898.60
2019-04-26T03:34:05.279Z,100903.92
2019-04-26T03:38:06.453Z,100901.97
2019-04-26T03:41:23.089Z,100902.04
2019-04-26T03:44:52.447Z,100906.85
2019-04-26T03:48:00.893Z,100909.23
2019-04-26T03:51:08.369Z,100914.56
2019-04-26T03:54:11.568Z,100919.38
2019-04-26T03:57:25.564Z,100920.42
2019-04-26T04:00:39.307Z,100925.98
2019-04-26T04:03:54.890Z,100930.47
2019-04-26T04:07:02.491Z,100932.09
2019-04-26T04:09:46.783Z,100938.20
2019-04-26T04:13:43.213Z,100938.91
2019-04-26T04:17:18.897Z,100943.19
2019-04-26T04:21:03.102Z,100949.50
2019-04-26T04:24:06.854Z,100953.19
2019-04-26T04:27:45.945Z,100954.55
2019-04-26T04:31:05.262Z,100959.42
2019-04-26T04:34:20.387Z,100962.84
2019-04-26T04:37:15.450Z,100966.96
2019-04-26T04:40:40.870Z,100970.34
2019-04-26T04:43:45.254Z,100980.88
2019-04-26T04:47:26.155Z,100989.69
2019-04-26T04:50:43.350Z,101000.36
2019-04-26T04:54:11.347Z,101002.49
2019-04-26T04:57:52.473Z,101009.14
2019-04-26T05:01:37.158Z,101009.48
2019-04-26T05:04:45.246Z,101010.69
2019-04-26T05:08:50.912Z,101015.22
2019-04-26T05:12:14.048Z,101017.91
2019-04-26T05:16:08.131Z,101026.72
2019-04-26T05:19:33.087Z,101033.37
2019-04-26T05:23:23.723Z,101041.02
2019-04-26T05:26:59.074Z,101042.14
2019-04-26T05:31:02.320Z,101049.60
2019-04-26T05:34:17.606Z,101047.88
2019-04-26T05:38:17.905Z,101053.52
2019-04-26T05:41:48.115Z,101044.97
2019-04-26T05:45:54.362Z,101053.52
2019-04-26T05:49:45.041Z,101050.11
2019-04-26T05:53:50.137Z,101053.30
2019-04-26T05:57:35.606Z,101051.36
2019-04-26T06:01:29.776Z,101063.31
2019-04-26T06:04:55.219Z,101060.29
2019-04-26T06:08:08.373Z,101060.90
2019-04-26T06:11:09.245Z,101067.19
2019-04-26T06:14:47.069Z,101065.52
2019-04-26T06:18:40.919Z,101056.48
2019-04-26T06:22:06.015Z,101049.03
2019-04-26T06:25:21.907Z,101048.52
2019-04-26T06:29:12.133Z,101041.55
2019-04-26T06:32:36.162Z,101044.44
2019-04-26T06:35:30.263Z,101052.51
2019-04-26T06:39:24.197Z,101044.91
2019-04-26T06:43:06.781Z,101048.28
2019-04-26T06:47:05.027Z,101050.07
2019-04-26T06:50:27.517Z,101048.38
2019-04-26T06:54:00.622Z,101057.72
2019-04-26T06:58:01.015Z,101070.09
2019-04-26T07:01:30.137Z,101068.20
2019-04-26T07:05:09.822Z,101078.78
2019-04-26T07:08:39.916Z,101076.61
2019-04-26T07:12:26.640Z,101077.30
2019-04-26T07:15:48.166Z,101076.89
2019-04-26T07:19:16.938Z,101081.14
2019-04-26T07:22:35.524Z,101093.73
2019-04-26T07:26:31.867Z,101104.19
2019-04-26T07:30:15.703Z,101099.38
2019-04-26T07:33:46.049Z,101114.45
2019-04-26T07:37:39.961Z,101115.91
2019-04-26T07:41:35.523Z,101120.30
2019-04-26T07:45:02.357Z,101133.66
2019-04-26T07:48:21.585Z,101139.63
2019-04-26T07:52:33.378Z,101148.91
2019-04-26T07:56:02.303Z,101149.13
2019-04-26T07:59:49.552Z,101155.05
2019-04-26T08:03:18.552Z,101155.13
2019-04-26T08:06:32.066Z,101156.52
2019-04-26T08:09:27.772Z,101153.56
2019-04-26T08:12:21.898Z,101154.86
2019-04-26T08:15:35.442Z,101156.63
2019-04-26T08:18:36.981Z,101156.05
2019-04-26T08:21:33.932Z,101155.55
2019-04-26T08:24:28.668Z,101156.03
2019-04-26T08:27:27.656Z,101154.72
2019-04-26T08:30:22.739Z,101159.06
2019-04-26T08:33:18.259Z,101147.57
2019-04-26T08:36:12.701Z,101147.66
2019-04-26T08:39:13.034Z,101141.80
2019-04-26T08:42:12.292Z,101147.00
2019-04-26T08:45:13.912Z,101143.71
2019-04-26T08:48:22.947Z,101141.36
2019-04-26T08:51:20.503Z,101147.05
2019-04-26T08:54:21.561Z,101143.84
2019-04-26T08:57:15.515Z,101137.88
2019-04-26T09:00:15.342Z,101145.70
2019-04-26T09:03:16.639Z,101149.55
2019-04-26T09:06:46.296Z,101154.47
2019-04-26T09:09:39.859Z,101151.21
2019-04-26T09:12:33.595Z,101166.91
2019-04-26T09:16:23.942Z,101163.94
2019-04-26T09:19:14.992Z,101164.30
2019-04-26T09:22:17.641Z,101166.52
2019-04-26T09:25:18.497Z,101176.97
2019-04-26T09:28:29.084Z,101177.02
2019-04-26T09:31:29.517Z,101166.64
2019-04-26T09:34:21.995Z,101161.03
2019-04-26T09:37:13.398Z,101159.05
2019-04-26T09:40:10.524Z,101159.40
2019-04-26T09:43:33.818Z,101163.34
2019-04-26T09:46:44.416Z,101167.38
2019-04-26T09:49:43.677Z,101182.34
2019-04-26T09:52:42.141Z,101177.71
2019-04-26T09:55:35.568Z,101186.31
2019-04-26T09:58:26.918Z,101196.75
2019-04-26T10:01:23.712Z,101200.42
2019-04-26T10:04:12.821Z,101206.14
2019-04-26T10:07:04.301Z,101201.62
2019-04-26T10:10:00.791Z,101196.59
2019-04-26T10:13:05.906Z,101198.09
2019-04-26T10:16:18.040Z,101191.34
2019-04-26T10:19:12.756Z,101173.30
2019-04-26T10:22:04.530Z,101168.40
2019-04-26T10:24:56.299Z,101160.98
2019-04-26T10:27:48.798Z,101157.14
2019-04-26T10:30:42.292Z,101150.66
2019-04-26T10:33:36.666Z,101149.90
2019-04-26T10:36:30.161Z,101139.61
2019-04-26T10:39:21.395Z,101134.15
2019-04-26T10:42:12.880Z,101148.18
2019-04-26T10:45:05.026Z,101144.91
2019-04-26T10:47:56.504Z,101144.05
2019-04-26T10:50:47.904Z,101135.98
2019-04-26T10:53:55.230Z,101133.48
2019-04-26T10:57:05.685Z,101124.45
2019-04-26T11:00:01.496Z,101116.09
2019-04-26T11:02:53.025Z,101113.00
2019-04-26T11:05:44.668Z,101129.55
2019-04-26T11:08:36.287Z,101132.16
2019-04-26T11:11:27.640Z,101129.88
2019-04-26T11:14:22.666Z,101132.38
2019-04-26T11:17:16.050Z,101136.77
2019-04-26T11:20:09.985Z,101140.59
2019-04-26T11:22:58.992Z,101138.23
2019-04-26T11:25:51.118Z,101135.61
2019-04-26T11:28:43.706Z,101136.20
2019-04-26T11:31:35.165Z,101140.55
2019-04-26T11:34:26.699Z,101138.66
2019-04-26T11:37:19.440Z,101146.25
2019-04-26T11:40:14.539Z,101151.84
2019-04-26T11:43:05.075Z,101159.40
2019-04-26T11:46:04.083Z,101157.36
2019-04-26T11:48:58.872Z,101158.52
2019-04-26T11:51:43.451Z,101161.92
2019-04-26T11:54:34.979Z,101166.66
2019-04-26T11:57:26.687Z,101165.31
2019-04-26T12:00:29.816Z,101164.55
2019-04-26T12:03:24.830Z,101172.48
2019-04-26T12:06:32.523Z,101177.05
2019-04-26T12:09:33.821Z,101178.16
2019-04-26T12:12:25.089Z,101176.17
2019-04-26T12:15:29.467Z,101178.08
2019-04-26T12:18:10.901Z,101174.84
2019-04-26T12:21:03.440Z,101173.05
2019-04-26T12:23:56.429Z,101172.60
2019-04-26T12:26:47.923Z,101174.20
2019-04-26T12:29:39.255Z,101173.39
2019-04-26T12:32:32.127Z,101176.78
2019-04-26T12:35:23.568Z,101182.36
2019-04-26T12:38:15.360Z,101182.75
2019-04-26T12:41:07.072Z,101182.98
2019-04-26T12:44:03.085Z,101182.47
2019-04-26T12:47:22.842Z,101175.34
2019-04-26T12:50:14.385Z,101179.15
2019-04-26T12:53:05.881Z,101182.31
2019-04-26T12:55:58.395Z,101180.67
2019-04-26T12:58:51.292Z,101173.45
2019-04-26T13:01:46.444Z,101172.41
2019-04-26T13:04:36.644Z,101170.91
2019-04-26T13:07:29.492Z,101175.73
2019-04-26T13:10:40.121Z,101172.52
2019-04-26T13:13:39.270Z,101171.20
2019-04-26T13:16:45.138Z,101175.94
2019-04-26T13:19:36.606Z,101167.23
2019-04-26T13:22:27.916Z,101167.16
2019-04-26T13:25:26.320Z,101165.69
2019-04-26T13:28:15.713Z,101173.00
2019-04-26T13:31:05.305Z,101164.10
2019-04-26T13:33:58.426Z,101169.11
2019-04-26T13:36:50.274Z,101171.37
2019-04-26T13:39:41.840Z,101178.88
2019-04-26T13:42:33.219Z,101181.24
2019-04-26T13:45:36.463Z,101185.41
2019-04-26T13:48:49.742Z,101186.11
2019-04-26T13:51:41.355Z,101187.91
2019-04-26T13:54:32.770Z,101193.34
2019-04-26T13:57:24.078Z,101197.42
2019-04-26T14:00:22.272Z,101187.45
2019-04-26T14:03:14.064Z,101185.30
2019-04-26T14:06:05.683Z,101175.84
2019-04-26T14:08:58.239Z,101172.39
2019-04-26T14:11:50.838Z,101160.73
2019-04-26T14:14:42.397Z,101154.05
2019-04-26T14:17:33.729Z,101155.91
2019-04-26T14:20:26.785Z,101154.94
2019-04-26T14:23:37.353Z,101184.13
2019-04-26T14:26:41.533Z,101220.01
2019-04-26T14:29:33.942Z,101250.51
2019-04-26T14:32:26.040Z,101252.88
2019-04-26T14:35:17.583Z,101252.17
2019-04-26T14:38:08.942Z,101234.15
2019-04-26T14:41:04.083Z,101220.91
2019-04-26T14:43:56.813Z,101218.05
2019-04-26T14:46:49.026Z,101204.00
2019-04-26T14:49:42.838Z,101189.94
2019-04-26T14:52:32.352Z,101178.20
2019-04-26T14:55:23.732Z,101171.89
2019-04-26T14:58:15.025Z,101167.53
2019-04-26T15:01:07.824Z,101165.63
2019-04-26T15:04:17.196Z,101168.13
2019-04-26T15:07:09.972Z,101162.94
2019-04-26T15:10:02.819Z,101154.95
2019-04-26T15:13:11.471Z,101155.75
2019-04-26T15:15:48.437Z,101146.70
2019-04-26T15:18:40.146Z,101141.10
2019-04-26T15:21:34.236Z,101150.06
2019-04-26T15:24:25.958Z,101142.52
2019-04-26T15:27:18.531Z,101151.19
2019-04-26T15:30:10.409Z,101154.88
2019-04-26T15:33:03.137Z,101159.41
2019-04-26T15:35:55.050Z,101159.27
2019-04-26T15:38:48.121Z,101162.32
2019-04-26T15:41:51.366Z,101175.87
2019-04-26T15:44:57.420Z,101177.10
2019-04-26T15:48:06.943Z,101183.39
2019-04-26T15:50:59.237Z,101191.92
2019-04-26T15:53:53.064Z,101203.59
2019-04-26T15:56:44.653Z,101212.90
2019-04-26T15:59:35.979Z,101219.52
2019-04-26T16:02:27.660Z,101210.44
2019-04-26T16:05:24.403Z,101193.67
2019-04-26T16:08:13.145Z,101174.75
2019-04-26T16:11:07.238Z,101174.54
2019-04-26T16:13:58.048Z,101180.44
2019-04-26T16:16:49.717Z,101182.16
2019-04-26T16:19:41.376Z,101180.48
2019-04-26T16:22:33.584Z,101186.65
2019-04-26T16:25:25.177Z,101200.72
2019-04-26T16:28:54.896Z,101204.39
2019-04-26T16:32:05.113Z,101206.61
2019-04-26T16:34:56.641Z,101208.04
2019-04-26T16:37:48.686Z,101203.98
2019-04-26T16:40:43.445Z,101205.61
2019-04-26T16:43:37.653Z,101217.20
2019-04-26T16:46:26.104Z,101222.02
2019-04-26T16:49:17.855Z,101226.80
2019-04-26T16:52:09.689Z,101228.58
2019-04-26T16:55:02.850Z,101223.95
2019-04-26T16:57:58.248Z,101229.13
2019-04-26T17:00:54.719Z,101226.55
2019-04-26T17:03:45.241Z,101225.47
2019-04-26T17:06:35.260Z,101228.31
2019-04-26T17:09:29.743Z,101226.39
2019-04-26T17:12:19.880Z,101227.98
2019-04-26T17:15:13.106Z,101230.58
2019-04-26T17:18:04.764Z,101224.89
2019-04-26T17:20:56.132Z,101220.22
2019-04-26T17:24:18.835Z,101224.97
2019-04-26T17:27:14.446Z,101237.65
2019-04-26T17:30:09.857Z,101234.02
2019-04-26T17:33:02.836Z,101239.73
2019-04-26T17:35:55.889Z,101235.90
2019-04-26T17:38:47.824Z,101246.24
2019-04-26T17:41:45.104Z,101245.71
2019-04-26T17:44:34.155Z,101254.36
2019-04-26T17:47:28.309Z,101253.87
2019-04-26T17:50:20.576Z,101266.70
2019-04-26T17:53:25.794Z,101265.69
2019-04-26T17:56:05.774Z,101274.91
2019-04-26T17:58:57.945Z,101268.02
2019-04-26T18:01:57.313Z,101268.05
2019-04-26T18:04:43.256Z,101271.59
2019-04-26T18:07:43.006Z,101275.45
2019-04-26T18:10:27.756Z,101273.93
2019-04-26T18:13:19.125Z,101271.53
2019-04-26T18:16:10.674Z,101265.33
2019-04-26T18:19:26.385Z,101263.50
2019-04-26T18:22:38.790Z,101267.19
2019-04-26T18:25:30.344Z,101267.64
2019-04-26T18:28:22.761Z,101264.30
2019-04-26T18:31:17.962Z,101265.52
2019-04-26T18:34:08.593Z,101268.44
2019-04-26T18:37:01.998Z,101266.64
2019-04-26T18:39:53.455Z,101261.19
2019-04-26T18:42:44.794Z,101260.31
2019-04-26T18:45:36.483Z,101259.64
2019-04-26T18:48:28.059Z,101253.28
2019-04-26T18:51:19.376Z,101249.58
2019-04-26T18:54:23.326Z,101248.28
2019-04-26T18:57:17.099Z,101254.66
2019-04-26T19:00:14.373Z,101255.82
2019-04-26T19:03:06.041Z,101262.80
2019-04-26T19:05:58.456Z,101274.69
2019-04-26T19:08:52.802Z,101281.88
2019-04-26T19:11:48.639Z,101283.56
2019-04-26T19:15:03.193Z,101286.12
2019-04-26T19:18:00.190Z,101293.56
2019-04-26T19:21:03.282Z,101286.54
2019-04-26T19:24:05.002Z,101290.27
2019-04-26T19:26:50.045Z,101296.31
2019-04-26T19:29:43.330Z,101294.23
2019-04-26T19:32:35.411Z,101298.08
2019-04-26T19:35:28.164Z,101291.41
2019-04-26T19:38:21.224Z,101287.43
2019-04-26T19:41:12.979Z,101294.53
2019-04-26T19:44:05.584Z,101293.35
2019-04-26T19:47:22.773Z,101292.88
2019-04-26T19:50:33.696Z,101296.34
2019-04-26T19:53:51.750Z,101296.22
2019-04-26T19:56:56.658Z,101296.05
2019-04-26T19:59:46.209Z,101298.80
2019-04-26T20:02:39.316Z,101299.03
2019-04-26T20:05:32.006Z,101301.59
2019-04-26T20:08:23.609Z,101304.89
2019-04-26T20:11:18.718Z,101304.63
2019-04-26T20:14:08.038Z,101308.42
2019-04-26T20:16:59.580Z,101302.66
2019-04-26T20:19:52.839Z,101302.83
2019-04-26T20:22:44.321Z,101298.05
2019-04-26T20:25:36.794Z,101307.75
2019-04-26T20:28:29.711Z,101303.06
2019-04-26T20:31:44.893Z,101308.44
2019-04-26T20:34:32.186Z,101311.38
2019-04-26T20:37:25.797Z,101314.41
2019-04-26T20:40:22.520Z,101316.55
2019-04-26T20:43:23.201Z,101317.94
2019-04-26T20:46:14.510Z,101325.45
2019-04-26T20:49:01.439Z,101319.39
2019-04-26T20:51:51.881Z,101326.03
2019-04-26T20:54:46.557Z,101325.58
2019-04-26T20:57:37.436Z,101322.38
2019-04-26T21:00:28.737Z,101325.93
2019-04-26T21:03:24.715Z,101330.73
2019-04-26T21:06:13.625Z,101332.61
2019-04-26T21:09:07.720Z,101332.05
2019-04-26T21:12:01.893Z,101327.84
2019-04-26T21:14:53.764Z,101323.81
2019-04-26T21:17:45.466Z,101320.39
2019-04-26T21:20:37.446Z,101319.26
2019-04-26T21:23:33.636Z,101312.60
2019-04-26T21:26:51.383Z,101315.42
2019-04-26T21:29:52.444Z,101319.64
2019-04-26T21:33:12.909Z,101305.95
2019-04-26T21:36:29.283Z,101314.75
2019-04-26T21:39:28.650Z,101306.56
2019-04-26T21:42:20.949Z,101308.03
2019-04-26T21:45:13.956Z,101310.36
2019-04-26T21:48:06.940Z,101306.53
2019-04-26T21:50:58.778Z,101303.90
2019-04-26T21:53:50.442Z,101295.81
2019-04-26T21:56:42.784Z,101289.64
2019-04-26T21:59:40.606Z,101287.78
2019-04-26T22:02:29.552Z,101289.45
2019-04-26T22:05:20.605Z,101288.64
2019-04-26T22:08:17.427Z,101286.23
2019-04-26T22:11:06.586Z,101276.41
2019-04-26T22:14:08.489Z,101280.14
2019-04-26T22:17:24.304Z,101279.59
2019-04-26T22:20:38.484Z,101279.25
2019-04-26T22:23:51.748Z,101272.06
2019-04-26T22:26:46.772Z,101270.48
2019-04-26T22:29:35.312Z,101263.38
2019-04-26T22:32:26.893Z,101255.23
2019-04-26T22:35:21.427Z,101254.14
2019-04-26T22:38:11.659Z,101249.86
2019-04-26T22:41:03.212Z,101258.19
2019-04-26T22:44:06.221Z,101253.70
2019-04-26T22:47:05.340Z,101251.05
2019-04-26T22:49:57.837Z,101252.11
2019-04-26T22:52:51.444Z,101250.14
2019-04-26T22:55:43.594Z,101253.66
2019-04-26T22:58:35.405Z,101251.95
2019-04-26T23:01:27.054Z,101253.13
2019-04-26T23:04:23.542Z,101252.02
2019-04-26T23:07:13.584Z,101250.34
2019-04-26T23:10:08.479Z,101249.70
2019-04-26T23:13:08.663Z,101248.97
2019-04-26T23:16:19.306Z,101238.52
2019-04-26T23:19:28.862Z,101232.53
2019-04-26T23:22:26.319Z,101228.05
2019-04-26T23:25:15.437Z,101222.88
2019-04-26T23:28:07.016Z,101222.78
2019-04-26T23:31:01.380Z,101221.58
2019-04-26T23:33:51.817Z,101225.84
2019-04-26T23:36:43.706Z,101221.39
2019-04-26T23:39:35.167Z,101210.97
2019-04-26T23:42:26.692Z,101211.29
2019-04-26T23:45:18.298Z,101209.18
2019-04-26T23:48:12.200Z,101203.25
2019-04-26T23:51:04.903Z,101203.40
2019-04-26T23:53:57.825Z,101195.50
2019-04-26T23:56:49.817Z,101196.17
2019-04-26T23:59:41.185Z,101191.39
